Metar z pełnej godziny Komunikat METAR ze strony awiacja.imgw.pl Metar G00 EPKK METAR EPKK 231300Z 21005KT 180V250 CAVOK 23/09 Q1012 =